Time;durP1;ratioP1;P1;durP2;ratioP2;P2;SDS_P1;SDS_P2;PMS_P1;PMS_P2;Temp;Humidity;BMP_temperature;BMP_pressure;BME280_temperature;BME280_humidity;BME280_pressure;Samples;Min_cycle;Max_cycle;Signal;HPM_P1;HPM_P2
2021/01/13 00:01:31;;;;;;;5.57;0.73;;;;;;;1.03;85.54;100757.69;10118212;28;20100;-69
2021/01/13 00:06:27;;;;;;;6.60;0.80;;;;;;;1.00;85.88;100752.81;10113384;28;20053;-68
2021/01/13 00:11:23;;;;;;;9.45;1.27;;;;;;;0.85;86.78;100744.56;10118960;28;20052;-69
2021/01/13 00:16:19;;;;;;;8.80;1.50;;;;;;;1.08;86.39;100764.19;10118932;28;20069;-67
2021/01/13 00:21:16;;;;;;;17.30;2.28;;;;;;;1.10;86.53;100799.78;10112810;28;20054;-68
2021/01/13 00:26:23;;;;;;;7.85;1.33;;;;;;;0.90;87.77;100801.16;10115177;28;20062;-69
2021/01/13 00:31:20;;;;;;;7.13;1.27;;;;;;;1.00;87.57;100752.81;10119577;28;20054;-68
2021/01/13 00:36:25;;;;;;;9.27;1.20;;;;;;;0.98;87.46;100760.31;10120170;28;20062;-67
2021/01/13 00:41:21;;;;;;;7.60;0.73;;;;;;;0.88;87.43;100754.00;10118744;28;20107;-68
2021/01/13 00:46:19;;;;;;;7.10;0.90;;;;;;;0.90;87.28;100755.38;10119146;28;20393;-67
2021/01/13 00:51:15;;;;;;;9.15;1.13;;;;;;;0.83;87.54;100746.69;10122797;28;20074;-67
2021/01/13 00:56:11;;;;;;;9.38;1.08;;;;;;;0.79;87.10;100757.16;10124094;28;20039;-67
2021/01/13 01:01:07;;;;;;;8.80;1.60;;;;;;;0.83;87.44;100746.69;10119802;28;20062;-67
2021/01/13 01:06:04;;;;;;;6.82;1.42;;;;;;;0.88;87.47;100738.66;10121078;28;20138;-68
2021/01/13 01:11:00;;;;;;;14.80;2.05;;;;;;;0.87;87.46;100736.25;10120526;28;20467;-68
2021/01/13 01:15:56;;;;;;;6.95;1.65;;;;;;;0.84;87.64;100742.94;10097704;28;20057;-66
2021/01/13 01:20:52;;;;;;;6.72;1.67;;;;;;;0.92;87.22;100733.59;10122196;28;20427;-66
2021/01/13 01:25:48;;;;;;;13.32;1.75;;;;;;;0.97;86.92;100769.44;10097517;28;20062;-66
2021/01/13 01:30:44;;;;;;;11.35;1.73;;;;;;;1.09;86.34;100771.19;10113188;28;20528;-69
2021/01/13 01:35:40;;;;;;;9.20;1.42;;;;;;;1.07;86.01;100776.00;10105719;28;20819;-66
2021/01/13 01:40:36;;;;;;;10.13;1.00;;;;;;;0.95;86.37;100777.00;10100106;28;20055;-67
2021/01/13 01:45:32;;;;;;;9.13;1.02;;;;;;;0.92;86.14;100761.31;10097338;28;20469;-66
2021/01/13 01:50:33;;;;;;;6.65;0.65;;;;;;;0.94;86.10;100764.59;10108092;28;20067;-65
2021/01/13 01:55:39;;;;;;;8.63;1.05;;;;;;;1.10;85.77;100759.38;10101575;28;20182;-67
2021/01/13 02:00:36;;;;;;;8.93;1.20;;;;;;;1.19;85.47;100747.06;10102385;28;20055;-69
2021/01/13 02:05:36;;;;;;;9.13;1.30;;;;;;;1.21;85.56;100742.25;10106134;28;20062;-69
2021/01/13 02:10:32;;;;;;;6.60;0.50;;;;;;;1.17;83.74;100754.59;10105549;28;20050;-67
2021/01/13 02:15:28;;;;;;;10.50;1.50;;;;;;;1.12;83.85;100741.09;10107872;28;20054;-68
2021/01/13 02:20:27;;;;;;;9.90;0.95;;;;;;;1.10;84.41;100740.53;10118047;28;20046;-68
2021/01/13 02:26:20;;;;;;;9.60;0.98;;;;;;;1.01;85.17;100732.88;10113052;28;20062;-67
2021/01/13 02:31:28;;;;;;;9.23;1.00;;;;;;;0.98;85.62;100722.63;10119506;28;20844;-68
2021/01/13 02:36:33;;;;;;;8.15;1.05;;;;;;;1.04;85.89;100753.94;10123048;28;20119;-68
2021/01/13 02:41:41;;;;;;;13.23;1.25;;;;;;;1.11;86.05;100774.44;10108858;28;20163;-68
2021/01/13 02:46:54;;;;;;;8.43;1.13;;;;;;;1.08;86.31;100743.47;10114708;28;20047;-68
2021/01/13 02:51:55;;;;;;;18.20;1.65;;;;;;;1.09;86.40;100745.09;10107570;28;20054;-68
2021/01/13 02:56:54;;;;;;;16.13;1.20;;;;;;;1.13;86.16;100751.59;10117123;28;20106;-69
2021/01/13 03:01:50;;;;;;;13.63;1.95;;;;;;;1.10;86.08;100718.97;10089823;28;20461;-70
2021/01/13 03:06:47;;;;;;;13.02;1.30;;;;;;;1.05;86.09;100734.00;10117984;28;20046;-69
2021/01/13 03:11:44;;;;;;;11.43;2.20;;;;;;;1.04;86.21;100737.78;10117529;28;20456;-66
2021/01/13 03:16:44;;;;;;;15.68;1.10;;;;;;;1.09;85.68;100722.72;10106384;28;20621;-67
2021/01/13 03:21:56;;;;;;;14.93;2.35;;;;;;;1.11;86.15;100725.97;10118553;28;20576;-67
2021/01/13 03:26:55;;;;;;;14.82;1.75;;;;;;;1.17;86.34;100730.34;10133079;28;20057;-69
2021/01/13 03:32:07;;;;;;;21.40;1.90;;;;;;;1.17;86.39;100757.28;10118284;28;20125;-67
2021/01/13 03:37:23;;;;;;;16.92;1.20;;;;;;;1.11;86.14;100734.84;10120385;28;20049;-67
2021/01/13 03:42:21;;;;;;;8.68;1.08;;;;;;;1.09;86.53;100739.72;10111768;28;20124;-68
2021/01/13 03:47:29;;;;;;;12.02;1.65;;;;;;;1.05;87.04;100739.41;10120534;28;20355;-68
2021/01/13 03:52:32;;;;;;;16.60;1.58;;;;;;;1.07;87.47;100709.53;10109826;28;20046;-68
2021/01/13 03:58:08;;;;;;;10.93;1.75;;;;;;;0.97;87.88;100704.84;10104387;28;20141;-66
2021/01/13 04:03:22;;;;;;;10.57;2.28;;;;;;;0.99;88.14;100744.97;10109941;28;20071;-69
2021/01/13 04:08:18;;;;;;;11.77;2.35;;;;;;;0.99;88.05;100759.25;10101499;28;20079;-69
2021/01/13 04:13:38;;;;;;;12.48;1.73;;;;;;;0.95;87.89;100738.47;10098505;28;20492;-69
2021/01/13 04:18:34;;;;;;;10.80;1.65;;;;;;;0.85;89.08;100739.19;10100772;28;20082;-70
2021/01/13 04:23:31;;;;;;;14.00;3.38;;;;;;;0.72;89.65;100718.03;10100797;28;20453;-71
2021/01/13 04:28:28;;;;;;;9.45;2.08;;;;;;;0.74;89.47;100727.50;10097058;28;20106;-69
2021/01/13 04:33:24;;;;;;;5.03;1.13;;;;;;;0.64;89.55;100732.75;10098070;28;20042;-68
2021/01/13 04:38:28;;;;;;;10.43;2.50;;;;;;;0.55;90.05;100729.69;10101997;28;20193;-70
2021/01/13 04:43:38;;;;;;;3.90;1.30;;;;;;;0.40;90.15;100722.25;10098999;28;20093;-71
2021/01/13 04:48:40;;;;;;;7.00;1.40;;;;;;;0.45;89.86;100721.50;10110429;28;20057;-71
2021/01/13 04:53:36;;;;;;;5.25;1.35;;;;;;;0.43;89.98;100701.28;10111856;28;20513;-71
2021/01/13 04:59:10;;;;;;;6.38;1.10;;;;;;;0.47;89.95;100700.53;10112961;28;21454;-70
2021/01/13 05:04:44;;;;;;;9.65;2.10;;;;;;;0.59;89.67;100687.75;10111756;28;20050;-68
2021/01/13 05:10:02;;;;;;;11.57;2.15;;;;;;;0.63;90.15;100672.75;10103352;28;20071;-67
2021/01/13 05:15:00;;;;;;;9.73;2.22;;;;;;;0.69;90.06;100680.88;10101795;28;20086;-69
2021/01/13 05:20:21;;;;;;;11.25;3.42;;;;;;;0.73;90.11;100677.41;10104161;28;20051;-69
2021/01/13 05:25:39;;;;;;;10.32;2.45;;;;;;;0.76;90.25;100670.72;10101786;28;20055;-70
2021/01/13 05:30:39;;;;;;;10.63;2.85;;;;;;;0.75;90.07;100669.91;10104727;28;20075;-67
2021/01/13 05:35:38;;;;;;;17.50;3.08;;;;;;;0.76;90.14;100670.72;10131482;28;20521;-66
2021/01/13 05:40:49;;;;;;;21.13;2.80;;;;;;;0.90;90.35;100676.50;10120084;28;20058;-66
2021/01/13 05:45:46;;;;;;;17.13;2.65;;;;;;;0.88;90.71;100674.06;10109020;28;20568;-67
2021/01/13 05:50:43;;;;;;;12.60;2.92;;;;;;;0.89;90.24;100667.63;10117805;28;20047;-66
2021/01/13 05:55:50;;;;;;;7.82;2.33;;;;;;;0.92;90.01;100664.41;10114320;28;20125;-66
2021/01/13 06:00:49;;;;;;;5.85;1.75;;;;;;;0.88;90.09;100663.28;10104170;28;20057;-66
2021/01/13 06:05:51;;;;;;;7.97;2.90;;;;;;;0.84;90.59;100673.75;10111760;28;20500;-64
2021/01/13 06:10:49;;;;;;;13.05;3.10;;;;;;;0.71;90.79;100662.59;10106644;28;20042;-65
2021/01/13 06:15:46;;;;;;;11.80;2.67;;;;;;;0.78;91.00;100668.56;10095161;28;20043;-64
2021/01/13 06:20:45;;;;;;;14.10;2.35;;;;;;;0.86;90.52;100665.44;10097077;28;20043;-64
2021/01/13 06:25:42;;;;;;;15.50;3.15;;;;;;;0.95;90.70;100663.91;10102249;28;20129;-64
2021/01/13 06:30:40;;;;;;;10.38;2.30;;;;;;;0.91;90.44;100665.50;10093016;28;20130;-66
2021/01/13 06:35:57;;;;;;;9.57;2.25;;;;;;;1.02;90.47;100653.75;10108011;28;20078;-66
2021/01/13 06:41:00;;;;;;;10.50;2.55;;;;;;;0.96;90.24;100652.06;10099068;28;20074;-65
2021/01/13 06:45:57;;;;;;;9.82;2.85;;;;;;;1.03;90.42;100652.66;10107773;28;20609;-65
2021/01/13 06:51:00;;;;;;;21.88;3.80;;;;;;;1.06;90.11;100654.03;10122572;28;20509;-65
2021/01/13 06:55:56;;;;;;;4.85;1.77;;;;;;;0.99;90.23;100646.16;10115665;28;20094;-65
2021/01/13 07:01:01;;;;;;;18.48;3.47;;;;;;;1.13;90.01;100643.84;10119902;28;20058;-65
2021/01/13 07:06:01;;;;;;;10.52;2.40;;;;;;;1.10;90.05;100648.97;10112661;28;20504;-65
2021/01/13 07:11:07;;;;;;;17.33;3.83;;;;;;;1.09;90.00;100658.09;10111734;28;20468;-65
2021/01/13 07:16:05;;;;;;;14.63;2.97;;;;;;;1.15;89.69;100667.84;10108975;28;20132;-66
2021/01/13 07:21:06;;;;;;;9.38;2.20;;;;;;;1.21;90.00;100677.63;10116449;28;20054;-66
2021/01/13 07:26:02;;;;;;;10.05;2.53;;;;;;;1.17;89.66;100671.09;10106371;28;20059;-65
2021/01/13 07:31:05;;;;;;;14.57;2.47;;;;;;;1.13;89.73;100673.47;10120855;28;20058;-66
2021/01/13 07:36:03;;;;;;;9.68;1.90;;;;;;;1.10;89.83;100682.09;10114240;28;20052;-66
2021/01/13 07:41:01;;;;;;;10.00;2.65;;;;;;;1.16;89.91;100674.84;10117513;28;20137;-65
2021/01/13 07:46:03;;;;;;;14.10;2.70;;;;;;;1.11;90.11;100667.53;10107163;28;20046;-66
2021/01/13 07:51:07;;;;;;;12.07;2.20;;;;;;;1.23;90.22;100659.28;10103217;28;20051;-66
2021/01/13 07:56:04;;;;;;;11.00;2.90;;;;;;;1.25;89.68;100662.53;10099012;28;20565;-66
2021/01/13 08:01:30;;;;;;;12.23;2.53;;;;;;;1.11;89.68;100651.38;10101607;28;20138;-66
2021/01/13 08:06:46;;;;;;;11.13;2.72;;;;;;;1.03;90.27;100633.81;10105017;28;20113;-65
2021/01/13 08:12:04;;;;;;;11.07;2.70;;;;;;;1.07;89.90;100646.75;10112281;28;20062;-67
2021/01/13 08:17:26;;;;;;;10.18;2.83;;;;;;;1.05;89.98;100634.38;10108817;28;20067;-66
2021/01/13 08:22:25;;;;;;;8.25;2.15;;;;;;;0.99;90.04;100632.69;10113691;28;20739;-66
2021/01/13 08:27:22;;;;;;;7.00;1.45;;;;;;;1.07;89.50;100622.53;10131049;28;20053;-66
2021/01/13 08:32:18;;;;;;;7.57;1.48;;;;;;;1.09;89.35;100609.63;10129668;28;20047;-67
2021/01/13 08:37:15;;;;;;;11.60;1.75;;;;;;;1.19;89.49;100609.72;10122048;28;20045;-67
2021/01/13 08:42:25;;;;;;;6.40;1.35;;;;;;;1.19;89.28;100598.94;10125355;28;20047;-66
2021/01/13 08:47:24;;;;;;;8.43;1.10;;;;;;;1.12;89.65;100598.34;10120860;28;20049;-66
2021/01/13 08:52:25;;;;;;;18.10;1.90;;;;;;;1.16;89.55;100600.28;10116446;28;20042;-66
2021/01/13 08:57:22;;;;;;;8.50;1.52;;;;;;;1.28;89.19;100602.78;10125549;28;20042;-66
2021/01/13 09:02:23;;;;;;;8.32;1.88;;;;;;;1.14;88.87;100588.13;10123168;28;20667;-66
2021/01/13 09:07:44;;;;;;;6.55;1.00;;;;;;;1.05;89.40;100583.22;10118771;28;20046;-66
2021/01/13 09:12:45;;;;;;;11.13;1.58;;;;;;;1.25;89.21;100592.50;10138843;28;20078;-66
2021/01/13 09:17:43;;;;;;;7.72;2.40;;;;;;;1.37;88.79;100585.06;10133186;28;20078;-66
2021/01/13 09:22:54;;;;;;;12.45;3.08;;;;;;;1.43;88.71;100584.00;10125445;28;20051;-66
2021/01/13 09:27:51;;;;;;;7.35;1.65;;;;;;;1.65;88.36;100581.19;10123511;28;20043;-66
2021/01/13 09:32:52;;;;;;;14.05;1.98;;;;;;;1.63;88.41;100582.53;10118920;28;20046;-66
2021/01/13 09:37:53;;;;;;;14.65;2.20;;;;;;;1.66;88.34;100572.00;10135926;28;20054;-66
2021/01/13 09:42:56;;;;;;;9.98;2.70;;;;;;;1.64;88.29;100563.38;10122064;28;20057;-66
2021/01/13 09:48:15;;;;;;;8.65;1.27;;;;;;;1.77;87.66;100562.09;10121826;28;20102;-65
2021/01/13 09:53:14;;;;;;;13.10;2.13;;;;;;;1.83;87.99;100555.66;10130476;28;20049;-66
2021/01/13 09:58:34;;;;;;;11.77;1.73;;;;;;;1.95;86.87;100558.16;10121027;28;20085;-66
2021/01/13 10:03:30;;;;;;;15.45;1.70;;;;;;;2.19;86.33;100558.47;10127400;28;20078;-67
2021/01/13 10:08:32;;;;;;;12.55;1.77;;;;;;;2.66;84.97;100546.69;10120473;28;20073;-66
2021/01/13 10:13:30;;;;;;;11.48;1.58;;;;;;;2.62;85.09;100534.81;10121033;28;20062;-66
2021/01/13 10:18:27;;;;;;;12.18;1.40;;;;;;;2.60;85.21;100518.06;10121048;28;20085;-66
2021/01/13 10:23:28;;;;;;;12.35;1.90;;;;;;;2.69;84.51;100532.66;10114794;28;20074;-66
2021/01/13 10:28:27;;;;;;;13.77;1.85;;;;;;;2.71;84.69;100527.78;10126311;28;20108;-66
2021/01/13 10:33:50;;;;;;;12.25;1.92;;;;;;;2.52;84.90;100534.78;10126454;28;20516;-66
2021/01/13 10:38:47;;;;;;;15.20;2.35;;;;;;;2.42;85.76;100518.59;10129834;28;20595;-66
2021/01/13 10:43:45;;;;;;;15.35;2.03;;;;;;;2.42;86.75;100499.72;10121516;28;20078;-67
2021/01/13 10:48:48;;;;;;;20.10;2.28;;;;;;;2.20;87.26;100525.03;10118436;28;20082;-66
2021/01/13 10:53:52;;;;;;;13.88;2.28;;;;;;;2.27;86.38;100512.06;10113363;28;20058;-66
2021/01/13 10:58:50;;;;;;;13.38;1.60;;;;;;;2.34;86.44;100501.03;10112814;28;20046;-66
2021/01/13 11:03:46;;;;;;;11.40;1.38;;;;;;;2.38;85.62;100479.72;10108812;28;20105;-64
2021/01/13 11:08:43;;;;;;;15.02;2.42;;;;;;;2.46;86.22;100471.09;10109687;28;20637;-65
2021/01/13 11:13:46;;;;;;;17.48;2.10;;;;;;;2.58;86.40;100452.75;10113737;28;20070;-66
2021/01/13 11:18:42;;;;;;;17.70;2.22;;;;;;;2.76;85.13;100450.56;10113447;28;20043;-65
2021/01/13 11:23:47;;;;;;;12.98;2.13;;;;;;;2.85;84.41;100427.31;10115886;28;20097;-66
2021/01/13 11:28:44;;;;;;;15.48;1.77;;;;;;;2.97;84.34;100459.44;10102719;28;20082;-65
2021/01/13 11:33:46;;;;;;;9.98;3.22;;;;;;;3.02;82.78;100403.53;10103645;28;20055;-65
2021/01/13 11:38:53;;;;;;;12.18;2.38;;;;;;;3.05;83.50;100394.88;10112853;28;20058;-65
2021/01/13 11:44:28;;;;;;;6.00;1.20;;;;;;;3.33;82.44;100370.97;10106893;28;20101;-65
2021/01/13 11:49:37;;;;;;;16.90;2.07;;;;;;;3.59;80.42;100336.50;10102671;28;20148;-65
2021/01/13 11:54:34;;;;;;;11.48;2.00;;;;;;;3.56;80.55;100343.28;10110167;28;20961;-66
2021/01/13 11:59:30;;;;;;;17.40;2.25;;;;;;;3.52;81.04;100331.41;10129397;28;20469;-65
2021/01/13 12:04:27;;;;;;;14.30;1.92;;;;;;;3.47;80.72;100312.53;10130987;28;20098;-65
2021/01/13 12:09:23;;;;;;;18.52;1.73;;;;;;;3.41;80.74;100307.44;10134556;28;20500;-65
2021/01/13 12:14:19;;;;;;;15.80;1.98;;;;;;;3.41;81.47;100297.41;10127797;28;20069;-66
2021/01/13 12:19:15;;;;;;;11.07;2.00;;;;;;;3.27;82.06;100288.31;10120870;28;20530;-66
2021/01/13 12:24:16;;;;;;;14.75;1.90;;;;;;;3.27;82.41;100266.69;10109211;28;20053;-66
2021/01/13 12:29:18;;;;;;;14.75;2.20;;;;;;;3.29;81.93;100245.63;10112550;28;20074;-65
2021/01/13 12:34:21;;;;;;;12.00;1.80;;;;;;;3.32;81.75;100259.38;10106491;28;20055;-65
2021/01/13 12:39:30;;;;;;;17.48;1.83;;;;;;;3.34;81.29;100215.84;10102706;28;20039;-66
2021/01/13 12:44:26;;;;;;;11.75;1.73;;;;;;;3.38;80.74;100235.81;10110090;28;20050;-66
2021/01/13 12:49:26;;;;;;;18.05;2.35;;;;;;;3.42;80.17;100201.75;10112021;28;20042;-65
2021/01/13 12:54:23;;;;;;;13.18;2.05;;;;;;;3.34;81.66;100210.44;10123909;28;20042;-66
2021/01/13 12:59:20;;;;;;;18.02;2.70;;;;;;;3.31;81.89;100162.38;10126653;28;20061;-66
2021/01/13 13:04:17;;;;;;;11.77;1.13;;;;;;;2.61;83.12;100263.25;10118048;28;20390;-67
2021/01/13 13:09:14;;;;;;;6.93;0.77;;;;;;;1.16;86.70;100313.97;10139570;28;20515;-65
2021/01/13 13:14:19;;;;;;;2.72;0.30;;;;;;;0.77;87.64;100317.09;10118189;28;20051;-65
2021/01/13 13:19:15;;;;;;;3.67;0.30;;;;;;;0.43;89.41;100312.06;10130598;28;20046;-65
2021/01/13 13:24:16;;;;;;;6.18;0.65;;;;;;;0.34;89.99;100311.72;10109954;28;20089;-66
2021/01/13 13:29:12;;;;;;;4.47;0.43;;;;;;;0.38;90.66;100293.22;10111112;28;20034;-65
2021/01/13 13:34:09;;;;;;;1.80;0.17;;;;;;;0.36;90.53;100273.84;10121159;28;20054;-65
2021/01/13 13:39:05;;;;;;;5.97;0.52;;;;;;;0.38;91.16;100283.25;10116856;28;20122;-65
2021/01/13 13:44:04;;;;;;;2.42;0.30;;;;;;;0.47;90.88;100262.06;10114221;28;20054;-65
2021/01/13 13:49:00;;;;;;;4.80;0.60;;;;;;;0.63;90.49;100266.44;10126926;28;20050;-66
2021/01/13 13:53:56;;;;;;;4.60;0.65;;;;;;;0.63;88.43;100239.53;10119537;28;20432;-67
2021/01/13 13:58:52;;;;;;;2.28;0.65;;;;;;;0.63;89.03;100252.19;10123567;28;20054;-66
2021/01/13 14:03:48;;;;;;;3.05;0.40;;;;;;;0.70;87.87;100203.50;10109833;28;20139;-66
2021/01/13 14:08:44;;;;;;;6.88;0.90;;;;;;;0.83;86.98;100219.94;10085974;28;20047;-66
2021/01/13 14:13:40;;;;;;;11.18;1.58;;;;;;;0.83;86.62;100213.75;10090170;28;20188;-67
2021/01/13 14:18:36;;;;;;;4.28;1.08;;;;;;;0.91;86.05;100221.31;10095148;28;20051;-66
2021/01/13 14:23:33;;;;;;;10.35;1.10;;;;;;;1.05;85.76;100211.66;10093277;28;20074;-67
2021/01/13 14:28:29;;;;;;;11.85;2.05;;;;;;;1.05;85.83;100229.69;10099778;28;20417;-66
2021/01/13 14:33:25;;;;;;;12.88;1.75;;;;;;;1.17;85.71;100229.44;10100874;28;20417;-71
2021/01/13 14:38:22;;;;;;;15.55;2.53;;;;;;;1.19;86.07;100243.47;10123459;28;20065;-67
2021/01/13 14:43:18;;;;;;;20.13;2.53;;;;;;;1.25;85.95;100236.97;10120607;28;20065;-67
2021/01/13 14:48:14;;;;;;;37.70;2.70;;;;;;;1.27;85.30;100245.59;10111991;28;20051;-66
2021/01/13 14:53:10;;;;;;;19.83;3.00;;;;;;;1.35;85.27;100239.72;10120985;28;20141;-66
2021/01/13 14:58:07;;;;;;;28.90;3.65;;;;;;;1.38;84.79;100251.81;10112412;28;20047;-67
2021/01/13 15:03:03;;;;;;;15.80;2.85;;;;;;;1.36;84.44;100278.22;10115581;28;20102;-66
2021/01/13 15:07:58;;;;;;;16.55;2.63;;;;;;;1.39;83.58;100296.53;10109238;28;20050;-67
2021/01/13 15:12:54;;;;;;;27.05;3.63;;;;;;;1.50;82.36;100276.63;10082061;28;20051;-67
2021/01/13 15:17:51;;;;;;;18.02;2.40;;;;;;;1.55;82.15;100295.47;10119238;28;20521;-67
2021/01/13 15:22:48;;;;;;;17.70;2.53;;;;;;;1.58;80.62;100304.91;10113952;28;20051;-67
2021/01/13 15:27:44;;;;;;;11.63;1.92;;;;;;;1.61;80.11;100315.16;10107519;28;20098;-67
2021/01/13 15:32:41;;;;;;;11.73;1.80;;;;;;;1.59;79.58;100328.91;10094711;28;20157;-67
2021/01/13 15:37:37;;;;;;;12.52;1.77;;;;;;;1.56;79.69;100334.03;10108081;28;20130;-67
2021/01/13 15:42:33;;;;;;;7.45;1.10;;;;;;;1.56;79.83;100334.03;10091840;28;20760;-67
2021/01/13 15:47:29;;;;;;;8.65;1.38;;;;;;;1.44;79.54;100337.78;10108958;28;20058;-67
2021/01/13 15:52:26;;;;;;;7.28;1.27;;;;;;;1.43;79.46;100346.91;10112781;28;20046;-67
2021/01/13 15:57:25;;;;;;;6.43;1.58;;;;;;;1.33;79.79;100360.38;10117954;28;20058;-65
2021/01/13 16:02:22;;;;;;;7.22;1.00;;;;;;;1.33;79.98;100357.69;10117243;28;20073;-66
2021/01/13 16:07:22;;;;;;;9.13;1.10;;;;;;;1.40;80.32;100377.09;10112864;28;20055;-66
2021/01/13 16:12:18;;;;;;;7.35;1.30;;;;;;;1.29;80.82;100378.13;10109335;28;20700;-66
2021/01/13 16:17:15;;;;;;;4.75;0.93;;;;;;;1.26;80.81;100373.28;10111126;28;20078;-67
2021/01/13 16:22:11;;;;;;;6.25;1.33;;;;;;;1.20;80.97;100390.50;10110851;28;20054;-67
2021/01/13 16:27:08;;;;;;;2.75;0.90;;;;;;;1.08;80.38;100398.78;10110563;28;20081;-66
2021/01/13 16:32:05;;;;;;;6.35;1.13;;;;;;;1.01;80.12;100409.00;10091109;28;20058;-67
2021/01/13 16:37:01;;;;;;;5.28;1.25;;;;;;;1.02;80.11;100408.75;10105780;28;20129;-66
2021/01/13 16:42:08;;;;;;;7.63;1.70;;;;;;;1.02;79.53;100416.81;10119204;28;20054;-66
2021/01/13 16:47:04;;;;;;;6.40;1.27;;;;;;;0.96;79.05;100420.53;10109617;28;20575;-66
2021/01/13 16:52:03;;;;;;;4.90;1.00;;;;;;;0.75;77.08;100443.03;10121166;28;20043;-67
2021/01/13 16:57:03;;;;;;;3.22;1.05;;;;;;;0.77;76.83;100435.50;10111518;28;20063;-68
2021/01/13 17:02:02;;;;;;;4.28;1.13;;;;;;;0.76;75.25;100450.00;10095510;28;20425;-66
2021/01/13 17:06:58;;;;;;;7.35;0.80;;;;;;;0.46;75.01;100456.78;10109009;28;20141;-66
2021/01/13 17:11:57;;;;;;;5.10;1.15;;;;;;;0.50;75.27;100457.09;10100655;28;20495;-66
2021/01/13 17:16:55;;;;;;;2.72;1.00;;;;;;;0.31;75.16;100454.00;10121426;28;20046;-66
2021/01/13 17:21:51;;;;;;;6.35;1.33;;;;;;;0.18;76.11;100449.84;10117801;28;20509;-66
2021/01/13 17:26:48;;;;;;;5.93;1.52;;;;;;;0.25;76.33;100465.75;10111261;28;20054;-66
2021/01/13 17:31:44;;;;;;;2.22;0.50;;;;;;;0.09;75.52;100484.41;10122084;28;20062;-65
2021/01/13 17:36:40;;;;;;;5.30;1.25;;;;;;;0.08;75.46;100493.56;10120980;28;20078;-63
2021/01/13 17:41:37;;;;;;;5.68;1.20;;;;;;;0.21;75.81;100503.13;10099429;28;20058;-67
2021/01/13 17:46:35;;;;;;;4.72;0.77;;;;;;;0.24;74.44;100509.88;10108161;28;20596;-68
2021/01/13 17:51:32;;;;;;;11.18;2.83;;;;;;;0.32;74.54;100504.00;10118217;28;20057;-66
2021/01/13 17:56:28;;;;;;;5.60;1.42;;;;;;;0.24;74.65;100517.94;10131534;28;20100;-67
2021/01/13 18:01:29;;;;;;;8.88;1.67;;;;;;;0.30;73.88;100533.88;10106989;28;20073;-67
2021/01/13 18:06:25;;;;;;;4.80;1.17;;;;;;;0.25;74.57;100541.84;10106360;28;20126;-66
2021/01/13 18:11:21;;;;;;;7.88;1.65;;;;;;;0.24;74.41;100545.63;10108791;28;20142;-65
2021/01/13 18:16:17;;;;;;;7.78;1.42;;;;;;;0.35;73.46;100546.56;10094312;28;20117;-66
2021/01/13 18:21:13;;;;;;;5.13;1.10;;;;;;;0.34;73.82;100552.97;10104252;28;20462;-66
2021/01/13 18:26:09;;;;;;;5.43;1.10;;;;;;;0.38;73.10;100544.16;10099657;28;20057;-65
2021/01/13 18:31:05;;;;;;;5.45;1.60;;;;;;;0.35;72.85;100541.19;10104245;28;20575;-66
2021/01/13 18:36:01;;;;;;;5.97;0.90;;;;;;;0.32;73.39;100558.59;10114789;28;20097;-65
2021/01/13 18:40:57;;;;;;;4.63;1.15;;;;;;;0.33;73.05;100564.81;10116115;28;20050;-66
2021/01/13 18:45:54;;;;;;;4.15;0.93;;;;;;;0.36;72.66;100559.72;10114008;28;20051;-64
2021/01/13 18:50:53;;;;;;;13.45;1.35;;;;;;;0.29;72.37;100579.81;10113795;28;20053;-66
2021/01/13 18:55:50;;;;;;;4.78;1.85;;;;;;;0.19;72.47;100592.09;10119336;28;20051;-66
2021/01/13 19:00:46;;;;;;;9.13;1.75;;;;;;;0.33;72.15;100586.34;10101876;28;20050;-65
2021/01/13 19:05:42;;;;;;;4.22;0.88;;;;;;;0.33;72.18;100591.72;10107354;28;20501;-66
2021/01/13 19:10:38;;;;;;;5.38;1.27;;;;;;;0.36;72.82;100607.34;10113197;28;20054;-65
2021/01/13 19:15:34;;;;;;;3.08;0.95;;;;;;;0.35;72.04;100605.72;10106938;28;20051;-66
2021/01/13 19:20:30;;;;;;;5.63;1.27;;;;;;;0.47;72.13;100592.13;10096942;28;20477;-65
2021/01/13 19:25:27;;;;;;;7.18;1.13;;;;;;;0.54;72.37;100609.69;10105602;28;20219;-62
2021/01/13 19:30:23;;;;;;;7.18;1.10;;;;;;;0.59;72.38;100600.84;10097658;28;20125;-65
2021/01/13 19:35:21;;;;;;;3.47;1.13;;;;;;;0.52;72.02;100611.81;10104390;28;20054;-64
2021/01/13 19:40:21;;;;;;;7.93;1.38;;;;;;;0.54;72.42;100614.25;10102092;28;20069;-67
2021/01/13 19:45:22;;;;;;;5.43;1.25;;;;;;;0.59;72.12;100623.19;10101958;28;20108;-66
2021/01/13 19:50:20;;;;;;;3.17;1.10;;;;;;;0.50;72.40;100619.31;10104201;28;20086;-65
2021/01/13 19:55:16;;;;;;;5.60;1.23;;;;;;;0.54;72.17;100625.81;10107318;28;20122;-66
2021/01/13 20:00:13;;;;;;;2.90;1.05;;;;;;;0.53;72.75;100632.25;10096636;28;20055;-67
2021/01/13 20:05:12;;;;;;;7.30;1.40;;;;;;;0.59;73.18;100643.91;10107221;28;20065;-67
2021/01/13 20:10:09;;;;;;;4.35;1.10;;;;;;;0.47;72.50;100646.72;10125202;28;20082;-67
2021/01/13 20:15:06;;;;;;;5.55;1.00;;;;;;;0.44;72.09;100649.09;10115919;28;20124;-65
2021/01/13 20:20:04;;;;;;;5.25;1.17;;;;;;;0.53;72.63;100661.84;10130695;28;20042;-68
2021/01/13 20:25:01;;;;;;;5.75;1.15;;;;;;;0.37;72.19;100657.38;10118677;28;20051;-66
2021/01/13 20:29:57;;;;;;;6.47;0.98;;;;;;;0.54;71.97;100652.72;10108285;28;20102;-67
2021/01/13 20:34:53;;;;;;;5.95;1.45;;;;;;;0.57;72.29;100668.34;10131342;28;20050;-67
2021/01/13 20:39:49;;;;;;;9.05;2.10;;;;;;;0.59;72.14;100655.47;10111592;28;20055;-67
2021/01/13 20:45:01;;;;;;;6.72;1.05;;;;;;;0.44;72.22;100687.56;10100036;28;20065;-65
2021/01/13 20:49:57;;;;;;;4.10;1.02;;;;;;;0.46;72.04;100679.25;10114265;28;20094;-66
2021/01/13 20:54:56;;;;;;;5.88;1.38;;;;;;;0.50;72.24;100689.25;10097528;28;20554;-66
2021/01/13 20:59:52;;;;;;;7.18;1.25;;;;;;;0.46;72.48;100681.94;10096453;28;20047;-66
2021/01/13 21:04:49;;;;;;;6.53;1.60;;;;;;;0.39;72.52;100684.81;10128246;28;20397;-66
2021/01/13 21:09:46;;;;;;;4.70;1.00;;;;;;;0.37;72.31;100686.94;10127455;28;20071;-66
2021/01/13 21:14:42;;;;;;;3.65;0.95;;;;;;;0.36;71.95;100702.28;10121469;28;20046;-66
2021/01/13 21:19:38;;;;;;;4.53;1.35;;;;;;;0.33;72.45;100715.44;10114778;28;20432;-67
2021/01/13 21:24:34;;;;;;;6.50;1.75;;;;;;;0.51;72.68;100717.81;10104877;28;20077;-64
2021/01/13 21:29:30;;;;;;;3.92;1.38;;;;;;;0.50;72.19;100712.66;10114496;28;20047;-66
2021/01/13 21:34:27;;;;;;;5.50;1.55;;;;;;;0.47;72.43;100722.06;10117751;28;20501;-63
2021/01/13 21:39:23;;;;;;;7.88;1.65;;;;;;;0.55;72.11;100727.00;10124938;28;20050;-67
2021/01/13 21:44:19;;;;;;;9.20;1.75;;;;;;;0.53;71.50;100737.19;10123493;28;20054;-68
2021/01/13 21:49:16;;;;;;;7.00;1.17;;;;;;;0.41;71.75;100749.94;10109209;28;20786;-69
2021/01/13 21:54:12;;;;;;;4.63;1.30;;;;;;;0.45;71.49;100745.72;10119952;28;20047;-68
2021/01/13 21:59:08;;;;;;;1.77;0.93;;;;;;;0.34;71.67;100755.50;10102176;28;20121;-69
2021/01/13 22:04:04;;;;;;;9.05;1.27;;;;;;;0.48;72.10;100755.97;10114762;28;20074;-69
2021/01/13 22:09:02;;;;;;;3.30;0.95;;;;;;;0.46;71.82;100768.84;10120313;28;20050;-68
2021/01/13 22:13:58;;;;;;;4.35;1.25;;;;;;;0.50;71.53;100772.66;10123447;28;20051;-68
2021/01/13 22:18:54;;;;;;;5.10;1.73;;;;;;;0.34;71.48;100786.97;10110650;28;20042;-67
2021/01/13 22:23:51;;;;;;;4.35;1.13;;;;;;;0.43;72.09;100801.63;10114472;28;20531;-67
2021/01/13 22:28:47;;;;;;;3.78;1.23;;;;;;;0.42;71.04;100800.00;10122185;28;20421;-68
2021/01/13 22:33:44;;;;;;;5.43;1.35;;;;;;;0.38;71.84;100809.63;10131204;28;20046;-68
2021/01/13 22:38:41;;;;;;;7.28;1.67;;;;;;;0.37;72.42;100821.44;10122704;28;20137;-68
2021/01/13 22:43:38;;;;;;;9.60;1.73;;;;;;;0.46;71.95;100837.97;10119482;28;20567;-67
2021/01/13 22:48:35;;;;;;;8.00;1.02;;;;;;;0.40;72.21;100842.47;10120417;28;20129;-66
2021/01/13 22:53:30;;;;;;;3.92;0.93;;;;;;;0.34;72.10;100846.16;10127638;28;20046;-65
2021/01/13 22:58:27;;;;;;;6.78;1.38;;;;;;;0.35;72.28;100850.47;10126313;28;20137;-68
2021/01/13 23:03:23;;;;;;;8.88;0.95;;;;;;;0.35;72.55;100863.94;10119870;28;20381;-68
2021/01/13 23:08:19;;;;;;;7.47;1.67;;;;;;;0.34;72.87;100856.91;10117555;28;20042;-67